sensor_id;sensor_type;location;lat;lon;timestamp;P1;durP1;ratioP1;P2;durP2;ratioP2
44850;SDS011;30583;48.714;9.386;2024-02-23T00:01:36;0.20;;;0.10;;
44850;SDS011;30583;48.714;9.386;2024-02-23T00:04:01;0.10;;;0.10;;
44850;SDS011;30583;48.714;9.386;2024-02-23T00:06:27;0.30;;;0.10;;
44850;SDS011;30583;48.714;9.386;2024-02-23T00:08:53;0.08;;;0.00;;
44850;SDS011;30583;48.714;9.386;2024-02-23T00:11:20;0.05;;;0.05;;
44850;SDS011;30583;48.714;9.386;2024-02-23T00:13:46;0.85;;;0.08;;
44850;SDS011;30583;48.714;9.386;2024-02-23T00:16:11;0.03;;;0.00;;
44850;SDS011;30583;48.714;9.386;2024-02-23T00:18:37;0.63;;;0.03;;
44850;SDS011;30583;48.714;9.386;2024-02-23T00:21:03;0.10;;;0.03;;
44850;SDS011;30583;48.714;9.386;2024-02-23T00:23:29;0.05;;;0.00;;
44850;SDS011;30583;48.714;9.386;2024-02-23T00:25:55;0.05;;;0.00;;
44850;SDS011;30583;48.714;9.386;2024-02-23T00:28:20;0.10;;;0.03;;
44850;SDS011;30583;48.714;9.386;2024-02-23T00:30:46;0.22;;;0.10;;
44850;SDS011;30583;48.714;9.386;2024-02-23T00:33:12;0.15;;;0.03;;
44850;SDS011;30583;48.714;9.386;2024-02-23T00:35:38;1.17;;;0.70;;
44850;SDS011;30583;48.714;9.386;2024-02-23T00:38:03;1.58;;;0.57;;
44850;SDS011;30583;48.714;9.386;2024-02-23T00:40:29;0.57;;;0.10;;
44850;SDS011;30583;48.714;9.386;2024-02-23T00:42:55;0.30;;;0.10;;
44850;SDS011;30583;48.714;9.386;2024-02-23T00:45:20;1.13;;;0.20;;
44850;SDS011;30583;48.714;9.386;2024-02-23T00:47:46;0.40;;;0.10;;
44850;SDS011;30583;48.714;9.386;2024-02-23T00:50:13;1.45;;;0.10;;
44850;SDS011;30583;48.714;9.386;2024-02-23T00:52:39;0.10;;;0.10;;
44850;SDS011;30583;48.714;9.386;2024-02-23T00:55:05;0.80;;;0.20;;
44850;SDS011;30583;48.714;9.386;2024-02-23T00:57:33;0.88;;;0.15;;
44850;SDS011;30583;48.714;9.386;2024-02-23T00:59:59;0.25;;;0.20;;
44850;SDS011;30583;48.714;9.386;2024-02-23T01:02:24;0.20;;;0.20;;
44850;SDS011;30583;48.714;9.386;2024-02-23T01:04:50;2.28;;;0.30;;
44850;SDS011;30583;48.714;9.386;2024-02-23T01:07:15;1.35;;;0.35;;
44850;SDS011;30583;48.714;9.386;2024-02-23T01:09:41;0.55;;;0.20;;
44850;SDS011;30583;48.714;9.386;2024-02-23T01:12:07;0.90;;;0.30;;
44850;SDS011;30583;48.714;9.386;2024-02-23T01:14:32;1.17;;;0.28;;
44850;SDS011;30583;48.714;9.386;2024-02-23T01:16:58;0.75;;;0.28;;
44850;SDS011;30583;48.714;9.386;2024-02-23T01:19:24;0.20;;;0.10;;
44850;SDS011;30583;48.714;9.386;2024-02-23T01:21:49;1.00;;;0.20;;
44850;SDS011;30583;48.714;9.386;2024-02-23T01:24:24;1.30;;;0.25;;
44850;SDS011;30583;48.714;9.386;2024-02-23T01:26:51;0.82;;;0.22;;
44850;SDS011;30583;48.714;9.386;2024-02-23T01:29:16;1.27;;;0.10;;
44850;SDS011;30583;48.714;9.386;2024-02-23T01:31:42;1.10;;;0.10;;
44850;SDS011;30583;48.714;9.386;2024-02-23T01:34:08;0.82;;;0.20;;
44850;SDS011;30583;48.714;9.386;2024-02-23T01:36:33;1.30;;;0.28;;
44850;SDS011;30583;48.714;9.386;2024-02-23T01:38:59;3.25;;;1.00;;
44850;SDS011;30583;48.714;9.386;2024-02-23T01:41:24;1.67;;;0.20;;
44850;SDS011;30583;48.714;9.386;2024-02-23T01:43:50;1.65;;;0.38;;
44850;SDS011;30583;48.714;9.386;2024-02-23T01:46:16;1.42;;;0.28;;
44850;SDS011;30583;48.714;9.386;2024-02-23T01:48:44;3.03;;;0.50;;
44850;SDS011;30583;48.714;9.386;2024-02-23T01:51:10;2.65;;;0.47;;
44850;SDS011;30583;48.714;9.386;2024-02-23T01:53:39;2.42;;;0.60;;
44850;SDS011;30583;48.714;9.386;2024-02-23T01:56:05;3.10;;;0.40;;
44850;SDS011;30583;48.714;9.386;2024-02-23T01:58:31;1.95;;;0.93;;
44850;SDS011;30583;48.714;9.386;2024-02-23T02:01:00;1.88;;;0.50;;
44850;SDS011;30583;48.714;9.386;2024-02-23T02:03:25;1.67;;;0.35;;
44850;SDS011;30583;48.714;9.386;2024-02-23T02:05:51;2.55;;;0.70;;
44850;SDS011;30583;48.714;9.386;2024-02-23T02:08:18;1.80;;;0.60;;
44850;SDS011;30583;48.714;9.386;2024-02-23T02:10:47;2.85;;;0.40;;
44850;SDS011;30583;48.714;9.386;2024-02-23T02:13:12;1.40;;;0.38;;
44850;SDS011;30583;48.714;9.386;2024-02-23T02:15:38;1.75;;;0.50;;
44850;SDS011;30583;48.714;9.386;2024-02-23T02:18:04;1.88;;;0.20;;
44850;SDS011;30583;48.714;9.386;2024-02-23T02:20:32;1.75;;;0.40;;
44850;SDS011;30583;48.714;9.386;2024-02-23T02:22:58;3.50;;;0.45;;
44850;SDS011;30583;48.714;9.386;2024-02-23T02:25:24;1.73;;;0.43;;
44850;SDS011;30583;48.714;9.386;2024-02-23T02:27:50;2.22;;;0.50;;
44850;SDS011;30583;48.714;9.386;2024-02-23T02:30:15;1.40;;;0.40;;
44850;SDS011;30583;48.714;9.386;2024-02-23T02:32:41;1.88;;;0.40;;
44850;SDS011;30583;48.714;9.386;2024-02-23T02:35:10;1.23;;;0.25;;
44850;SDS011;30583;48.714;9.386;2024-02-23T02:37:37;1.05;;;0.30;;
44850;SDS011;30583;48.714;9.386;2024-02-23T02:40:02;1.25;;;0.25;;
44850;SDS011;30583;48.714;9.386;2024-02-23T02:42:28;1.95;;;0.50;;
44850;SDS011;30583;48.714;9.386;2024-02-23T02:44:54;0.55;;;0.20;;
44850;SDS011;30583;48.714;9.386;2024-02-23T02:47:19;1.23;;;0.20;;
44850;SDS011;30583;48.714;9.386;2024-02-23T02:49:45;1.42;;;0.28;;
44850;SDS011;30583;48.714;9.386;2024-02-23T02:52:11;1.00;;;0.30;;
44850;SDS011;30583;48.714;9.386;2024-02-23T02:54:36;1.67;;;0.73;;
44850;SDS011;30583;48.714;9.386;2024-02-23T02:57:02;0.63;;;0.20;;
44850;SDS011;30583;48.714;9.386;2024-02-23T02:59:27;0.43;;;0.17;;
44850;SDS011;30583;48.714;9.386;2024-02-23T03:01:53;0.70;;;0.15;;
44850;SDS011;30583;48.714;9.386;2024-02-23T03:04:18;0.68;;;0.10;;
44850;SDS011;30583;48.714;9.386;2024-02-23T03:06:44;1.17;;;0.40;;
44850;SDS011;30583;48.714;9.386;2024-02-23T03:09:10;0.85;;;0.30;;
44850;SDS011;30583;48.714;9.386;2024-02-23T03:11:35;0.20;;;0.20;;
44850;SDS011;30583;48.714;9.386;2024-02-23T03:14:01;0.20;;;0.20;;
44850;SDS011;30583;48.714;9.386;2024-02-23T03:16:28;2.05;;;1.27;;
44850;SDS011;30583;48.714;9.386;2024-02-23T03:18:56;2.63;;;0.32;;
44850;SDS011;30583;48.714;9.386;2024-02-23T03:21:21;0.43;;;0.20;;
44850;SDS011;30583;48.714;9.386;2024-02-23T03:23:47;2.88;;;0.35;;
44850;SDS011;30583;48.714;9.386;2024-02-23T03:26:12;0.55;;;0.13;;
44850;SDS011;30583;48.714;9.386;2024-02-23T03:28:38;0.47;;;0.20;;
44850;SDS011;30583;48.714;9.386;2024-02-23T03:31:04;1.45;;;0.20;;
44850;SDS011;30583;48.714;9.386;2024-02-23T03:33:29;0.13;;;0.10;;
44850;SDS011;30583;48.714;9.386;2024-02-23T03:35:57;1.73;;;0.20;;
44850;SDS011;30583;48.714;9.386;2024-02-23T03:38:23;0.85;;;0.20;;
44850;SDS011;30583;48.714;9.386;2024-02-23T03:40:48;0.85;;;0.25;;
44850;SDS011;30583;48.714;9.386;2024-02-23T03:43:14;1.52;;;0.28;;
44850;SDS011;30583;48.714;9.386;2024-02-23T03:45:40;1.38;;;0.80;;
44850;SDS011;30583;48.714;9.386;2024-02-23T03:48:05;2.40;;;0.98;;
44850;SDS011;30583;48.714;9.386;2024-02-23T03:50:31;2.65;;;1.10;;
44850;SDS011;30583;48.714;9.386;2024-02-23T03:52:57;4.22;;;1.20;;
44850;SDS011;30583;48.714;9.386;2024-02-23T03:55:23;3.40;;;1.98;;
44850;SDS011;30583;48.714;9.386;2024-02-23T03:57:48;0.77;;;0.20;;
44850;SDS011;30583;48.714;9.386;2024-02-23T04:00:14;1.20;;;0.30;;
44850;SDS011;30583;48.714;9.386;2024-02-23T04:02:40;0.38;;;0.10;;
44850;SDS011;30583;48.714;9.386;2024-02-23T04:05:06;0.88;;;0.30;;
44850;SDS011;30583;48.714;9.386;2024-02-23T04:07:32;0.85;;;0.22;;
44850;SDS011;30583;48.714;9.386;2024-02-23T04:09:58;0.88;;;0.30;;
44850;SDS011;30583;48.714;9.386;2024-02-23T04:12:23;0.98;;;0.30;;
44850;SDS011;30583;48.714;9.386;2024-02-23T04:14:49;2.35;;;0.30;;
44850;SDS011;30583;48.714;9.386;2024-02-23T04:17:16;1.67;;;0.40;;
44850;SDS011;30583;48.714;9.386;2024-02-23T04:19:42;1.10;;;0.43;;
44850;SDS011;30583;48.714;9.386;2024-02-23T04:22:08;1.40;;;0.30;;
44850;SDS011;30583;48.714;9.386;2024-02-23T04:24:35;1.00;;;0.30;;
44850;SDS011;30583;48.714;9.386;2024-02-23T04:27:03;1.35;;;0.50;;
44850;SDS011;30583;48.714;9.386;2024-02-23T04:29:29;3.78;;;1.10;;
44850;SDS011;30583;48.714;9.386;2024-02-23T04:32:01;1.80;;;0.40;;
44850;SDS011;30583;48.714;9.386;2024-02-23T04:34:27;0.85;;;0.20;;
44850;SDS011;30583;48.714;9.386;2024-02-23T04:36:54;0.28;;;0.20;;
44850;SDS011;30583;48.714;9.386;2024-02-23T04:39:20;1.83;;;0.40;;
44850;SDS011;30583;48.714;9.386;2024-02-23T04:41:46;1.05;;;0.35;;
44850;SDS011;30583;48.714;9.386;2024-02-23T04:44:11;1.42;;;0.70;;
44850;SDS011;30583;48.714;9.386;2024-02-23T04:46:37;3.25;;;0.60;;
44850;SDS011;30583;48.714;9.386;2024-02-23T04:49:02;3.15;;;1.02;;
44850;SDS011;30583;48.714;9.386;2024-02-23T04:51:28;0.93;;;0.77;;
44850;SDS011;30583;48.714;9.386;2024-02-23T04:53:53;2.53;;;0.80;;
44850;SDS011;30583;48.714;9.386;2024-02-23T04:56:19;3.30;;;1.27;;
44850;SDS011;30583;48.714;9.386;2024-02-23T04:58:45;4.13;;;2.00;;
44850;SDS011;30583;48.714;9.386;2024-02-23T05:01:11;2.17;;;1.13;;
44850;SDS011;30583;48.714;9.386;2024-02-23T05:03:37;1.30;;;0.80;;
44850;SDS011;30583;48.714;9.386;2024-02-23T05:06:03;1.10;;;0.60;;
44850;SDS011;30583;48.714;9.386;2024-02-23T05:08:30;0.63;;;0.50;;
44850;SDS011;30583;48.714;9.386;2024-02-23T05:10:56;2.65;;;0.73;;
44850;SDS011;30583;48.714;9.386;2024-02-23T05:13:22;1.23;;;0.80;;
44850;SDS011;30583;48.714;9.386;2024-02-23T05:15:48;1.17;;;0.88;;
44850;SDS011;30583;48.714;9.386;2024-02-23T05:18:13;3.83;;;1.50;;
44850;SDS011;30583;48.714;9.386;2024-02-23T05:20:39;4.70;;;2.00;;
44850;SDS011;30583;48.714;9.386;2024-02-23T05:23:05;5.47;;;1.70;;
44850;SDS011;30583;48.714;9.386;2024-02-23T05:25:30;2.40;;;1.30;;
44850;SDS011;30583;48.714;9.386;2024-02-23T05:27:56;1.65;;;0.90;;
44850;SDS011;30583;48.714;9.386;2024-02-23T05:30:21;19.90;;;7.78;;
44850;SDS011;30583;48.714;9.386;2024-02-23T05:32:47;298.67;;;127.45;;
44850;SDS011;30583;48.714;9.386;2024-02-23T05:35:13;135.52;;;69.40;;
44850;SDS011;30583;48.714;9.386;2024-02-23T05:37:39;391.90;;;309.90;;
44850;SDS011;30583;48.714;9.386;2024-02-23T05:40:06;498.45;;;396.02;;
44850;SDS011;30583;48.714;9.386;2024-02-23T05:42:35;177.45;;;131.63;;
44850;SDS011;30583;48.714;9.386;2024-02-23T05:45:01;64.85;;;48.35;;
44850;SDS011;30583;48.714;9.386;2024-02-23T05:47:29;37.40;;;28.75;;
44850;SDS011;30583;48.714;9.386;2024-02-23T05:49:55;24.80;;;16.55;;
44850;SDS011;30583;48.714;9.386;2024-02-23T05:52:21;15.82;;;9.60;;
44850;SDS011;30583;48.714;9.386;2024-02-23T05:54:46;9.73;;;5.45;;
44850;SDS011;30583;48.714;9.386;2024-02-23T05:57:12;23.15;;;15.88;;
44850;SDS011;30583;48.714;9.386;2024-02-23T05:59:37;97.85;;;67.63;;
44850;SDS011;30583;48.714;9.386;2024-02-23T06:02:03;35.42;;;25.00;;
44850;SDS011;30583;48.714;9.386;2024-02-23T06:04:29;15.82;;;11.02;;
44850;SDS011;30583;48.714;9.386;2024-02-23T06:06:54;5.90;;;4.10;;
44850;SDS011;30583;48.714;9.386;2024-02-23T06:09:20;4.55;;;2.90;;
44850;SDS011;30583;48.714;9.386;2024-02-23T06:11:46;6.00;;;3.03;;
44850;SDS011;30583;48.714;9.386;2024-02-23T06:14:12;5.25;;;2.85;;
44850;SDS011;30583;48.714;9.386;2024-02-23T06:16:37;5.72;;;2.40;;
44850;SDS011;30583;48.714;9.386;2024-02-23T06:19:03;6.28;;;3.63;;
44850;SDS011;30583;48.714;9.386;2024-02-23T06:21:28;12.40;;;10.88;;
44850;SDS011;30583;48.714;9.386;2024-02-23T06:23:54;6.50;;;5.53;;
44850;SDS011;30583;48.714;9.386;2024-02-23T06:26:20;4.13;;;3.17;;
44850;SDS011;30583;48.714;9.386;2024-02-23T06:28:46;5.10;;;2.13;;
44850;SDS011;30583;48.714;9.386;2024-02-23T06:31:14;4.93;;;2.45;;
44850;SDS011;30583;48.714;9.386;2024-02-23T06:33:40;4.90;;;2.53;;
44850;SDS011;30583;48.714;9.386;2024-02-23T06:36:09;6.90;;;3.58;;
44850;SDS011;30583;48.714;9.386;2024-02-23T06:38:34;4.13;;;3.72;;
44850;SDS011;30583;48.714;9.386;2024-02-23T06:41:00;5.10;;;3.15;;
44850;SDS011;30583;48.714;9.386;2024-02-23T06:43:26;4.25;;;2.15;;
44850;SDS011;30583;48.714;9.386;2024-02-23T06:45:51;5.18;;;2.35;;
44850;SDS011;30583;48.714;9.386;2024-02-23T06:48:17;5.68;;;2.28;;
44850;SDS011;30583;48.714;9.386;2024-02-23T06:50:43;6.88;;;3.10;;
44850;SDS011;30583;48.714;9.386;2024-02-23T06:53:08;10.35;;;7.88;;
44850;SDS011;30583;48.714;9.386;2024-02-23T06:55:34;7.50;;;5.10;;
44850;SDS011;30583;48.714;9.386;2024-02-23T06:58:00;33.78;;;27.20;;
44850;SDS011;30583;48.714;9.386;2024-02-23T07:00:26;49.22;;;40.75;;
44850;SDS011;30583;48.714;9.386;2024-02-23T07:02:51;63.88;;;51.03;;
44850;SDS011;30583;48.714;9.386;2024-02-23T07:05:17;37.40;;;30.98;;
44850;SDS011;30583;48.714;9.386;2024-02-23T07:07:43;36.88;;;30.92;;
44850;SDS011;30583;48.714;9.386;2024-02-23T07:10:09;45.72;;;41.08;;
44850;SDS011;30583;48.714;9.386;2024-02-23T07:12:35;12.98;;;10.68;;
44850;SDS011;30583;48.714;9.386;2024-02-23T07:15:01;10.73;;;6.43;;
44850;SDS011;30583;48.714;9.386;2024-02-23T07:17:27;9.32;;;5.00;;
44850;SDS011;30583;48.714;9.386;2024-02-23T07:19:53;5.68;;;3.78;;
44850;SDS011;30583;48.714;9.386;2024-02-23T07:22:18;5.53;;;3.15;;
44850;SDS011;30583;48.714;9.386;2024-02-23T07:24:45;12.05;;;7.05;;
44850;SDS011;30583;48.714;9.386;2024-02-23T07:27:11;10.18;;;7.47;;
44850;SDS011;30583;48.714;9.386;2024-02-23T07:29:36;8.80;;;6.60;;
44850;SDS011;30583;48.714;9.386;2024-02-23T07:32:02;15.32;;;13.57;;
44850;SDS011;30583;48.714;9.386;2024-02-23T07:34:28;10.45;;;6.07;;
44850;SDS011;30583;48.714;9.386;2024-02-23T07:36:54;7.75;;;4.28;;
44850;SDS011;30583;48.714;9.386;2024-02-23T07:39:20;6.13;;;3.92;;
44850;SDS011;30583;48.714;9.386;2024-02-23T07:41:46;9.43;;;3.97;;
44850;SDS011;30583;48.714;9.386;2024-02-23T07:44:12;9.10;;;6.60;;
44850;SDS011;30583;48.714;9.386;2024-02-23T07:46:38;11.70;;;6.80;;
44850;SDS011;30583;48.714;9.386;2024-02-23T07:49:04;8.20;;;5.18;;
44850;SDS011;30583;48.714;9.386;2024-02-23T07:51:31;5.93;;;2.65;;
44850;SDS011;30583;48.714;9.386;2024-02-23T07:53:56;10.05;;;4.22;;
44850;SDS011;30583;48.714;9.386;2024-02-23T07:56:22;8.50;;;3.40;;
44850;SDS011;30583;48.714;9.386;2024-02-23T07:58:48;6.75;;;2.83;;
44850;SDS011;30583;48.714;9.386;2024-02-23T08:01:14;5.97;;;2.10;;
44850;SDS011;30583;48.714;9.386;2024-02-23T08:03:39;4.72;;;1.48;;
44850;SDS011;30583;48.714;9.386;2024-02-23T08:06:05;4.13;;;1.80;;
44850;SDS011;30583;48.714;9.386;2024-02-23T08:08:31;3.28;;;1.65;;
44850;SDS011;30583;48.714;9.386;2024-02-23T08:11:00;3.45;;;1.73;;
44850;SDS011;30583;48.714;9.386;2024-02-23T08:13:26;4.72;;;1.60;;
44850;SDS011;30583;48.714;9.386;2024-02-23T08:15:52;4.38;;;1.35;;
44850;SDS011;30583;48.714;9.386;2024-02-23T08:18:17;5.95;;;1.80;;
44850;SDS011;30583;48.714;9.386;2024-02-23T08:20:43;8.57;;;1.88;;
44850;SDS011;30583;48.714;9.386;2024-02-23T08:23:08;5.32;;;2.28;;
44850;SDS011;30583;48.714;9.386;2024-02-23T08:25:34;3.80;;;1.50;;
44850;SDS011;30583;48.714;9.386;2024-02-23T08:28:01;11.73;;;3.33;;
44850;SDS011;30583;48.714;9.386;2024-02-23T08:30:26;8.07;;;3.28;;
44850;SDS011;30583;48.714;9.386;2024-02-23T08:32:52;6.32;;;2.13;;
44850;SDS011;30583;48.714;9.386;2024-02-23T08:35:17;4.55;;;2.10;;
44850;SDS011;30583;48.714;9.386;2024-02-23T08:37:43;4.07;;;1.80;;
44850;SDS011;30583;48.714;9.386;2024-02-23T08:40:09;6.18;;;1.60;;
44850;SDS011;30583;48.714;9.386;2024-02-23T08:42:35;3.88;;;1.33;;
44850;SDS011;30583;48.714;9.386;2024-02-23T08:45:01;3.63;;;1.17;;
44850;SDS011;30583;48.714;9.386;2024-02-23T08:47:27;2.97;;;1.50;;
44850;SDS011;30583;48.714;9.386;2024-02-23T08:49:57;5.43;;;1.40;;
44850;SDS011;30583;48.714;9.386;2024-02-23T08:52:22;4.32;;;2.30;;
44850;SDS011;30583;48.714;9.386;2024-02-23T08:54:48;3.67;;;1.20;;
44850;SDS011;30583;48.714;9.386;2024-02-23T08:57:14;5.55;;;2.72;;
44850;SDS011;30583;48.714;9.386;2024-02-23T08:59:44;2.95;;;1.25;;
44850;SDS011;30583;48.714;9.386;2024-02-23T09:02:09;3.38;;;1.00;;
44850;SDS011;30583;48.714;9.386;2024-02-23T09:04:35;5.78;;;1.48;;
44850;SDS011;30583;48.714;9.386;2024-02-23T09:07:01;4.97;;;1.00;;
44850;SDS011;30583;48.714;9.386;2024-02-23T09:09:27;5.55;;;1.83;;
44850;SDS011;30583;48.714;9.386;2024-02-23T09:11:52;5.55;;;1.17;;
44850;SDS011;30583;48.714;9.386;2024-02-23T09:14:18;3.85;;;1.15;;
44850;SDS011;30583;48.714;9.386;2024-02-23T09:16:44;2.95;;;1.33;;
44850;SDS011;30583;48.714;9.386;2024-02-23T09:19:11;2.70;;;0.82;;
44850;SDS011;30583;48.714;9.386;2024-02-23T09:21:37;5.50;;;1.30;;
44850;SDS011;30583;48.714;9.386;2024-02-23T09:24:03;4.15;;;1.50;;
44850;SDS011;30583;48.714;9.386;2024-02-23T09:26:29;3.63;;;1.10;;
44850;SDS011;30583;48.714;9.386;2024-02-23T09:28:55;6.13;;;1.40;;
44850;SDS011;30583;48.714;9.386;2024-02-23T09:31:20;2.30;;;1.10;;
44850;SDS011;30583;48.714;9.386;2024-02-23T09:33:46;3.78;;;1.17;;
44850;SDS011;30583;48.714;9.386;2024-02-23T09:36:13;13.52;;;2.10;;
44850;SDS011;30583;48.714;9.386;2024-02-23T09:38:39;5.78;;;1.88;;
44850;SDS011;30583;48.714;9.386;2024-02-23T09:41:04;8.70;;;1.50;;
44850;SDS011;30583;48.714;9.386;2024-02-23T09:43:40;5.13;;;1.33;;
44850;SDS011;30583;48.714;9.386;2024-02-23T09:46:09;4.32;;;1.13;;
44850;SDS011;30583;48.714;9.386;2024-02-23T09:48:35;3.15;;;1.20;;
44850;SDS011;30583;48.714;9.386;2024-02-23T09:51:03;3.40;;;1.30;;
44850;SDS011;30583;48.714;9.386;2024-02-23T09:53:31;4.20;;;1.30;;
44850;SDS011;30583;48.714;9.386;2024-02-23T09:55:57;3.63;;;0.90;;
44850;SDS011;30583;48.714;9.386;2024-02-23T09:58:25;4.57;;;1.20;;
44850;SDS011;30583;48.714;9.386;2024-02-23T10:00:51;3.60;;;0.80;;
44850;SDS011;30583;48.714;9.386;2024-02-23T10:03:17;2.55;;;1.00;;
44850;SDS011;30583;48.714;9.386;2024-02-23T10:05:43;5.00;;;1.10;;
44850;SDS011;30583;48.714;9.386;2024-02-23T10:08:10;4.68;;;1.20;;
44850;SDS011;30583;48.714;9.386;2024-02-23T10:10:37;3.83;;;1.58;;
44850;SDS011;30583;48.714;9.386;2024-02-23T10:13:02;4.53;;;1.80;;
44850;SDS011;30583;48.714;9.386;2024-02-23T10:15:31;4.85;;;1.40;;
44850;SDS011;30583;48.714;9.386;2024-02-23T10:17:56;4.63;;;1.08;;
44850;SDS011;30583;48.714;9.386;2024-02-23T10:20:22;4.70;;;1.30;;
44850;SDS011;30583;48.714;9.386;2024-02-23T10:22:48;3.00;;;1.02;;
44850;SDS011;30583;48.714;9.386;2024-02-23T10:25:13;2.78;;;0.90;;
44850;SDS011;30583;48.714;9.386;2024-02-23T10:27:40;4.32;;;1.10;;
44850;SDS011;30583;48.714;9.386;2024-02-23T10:30:07;3.10;;;1.02;;
44850;SDS011;30583;48.714;9.386;2024-02-23T10:32:36;4.40;;;1.58;;
44850;SDS011;30583;48.714;9.386;2024-02-23T10:35:04;4.85;;;1.10;;
44850;SDS011;30583;48.714;9.386;2024-02-23T10:37:35;5.30;;;1.00;;
44850;SDS011;30583;48.714;9.386;2024-02-23T10:40:01;3.78;;;1.25;;
44850;SDS011;30583;48.714;9.386;2024-02-23T10:42:30;3.10;;;1.48;;
44850;SDS011;30583;48.714;9.386;2024-02-23T10:44:58;3.72;;;1.60;;
44850;SDS011;30583;48.714;9.386;2024-02-23T10:47:26;8.43;;;2.25;;
44850;SDS011;30583;48.714;9.386;2024-02-23T10:49:53;5.43;;;1.70;;
44850;SDS011;30583;48.714;9.386;2024-02-23T10:52:20;5.18;;;1.00;;
44850;SDS011;30583;48.714;9.386;2024-02-23T10:54:48;4.65;;;0.80;;
44850;SDS011;30583;48.714;9.386;2024-02-23T10:57:14;4.15;;;1.10;;
44850;SDS011;30583;48.714;9.386;2024-02-23T10:59:45;3.67;;;1.05;;
44850;SDS011;30583;48.714;9.386;2024-02-23T11:02:12;4.75;;;1.40;;
44850;SDS011;30583;48.714;9.386;2024-02-23T11:04:42;5.55;;;1.20;;
44850;SDS011;30583;48.714;9.386;2024-02-23T11:07:15;5.10;;;1.10;;
44850;SDS011;30583;48.714;9.386;2024-02-23T11:09:43;3.75;;;1.10;;
44850;SDS011;30583;48.714;9.386;2024-02-23T11:12:21;5.55;;;1.10;;
44850;SDS011;30583;48.714;9.386;2024-02-23T11:14:51;4.28;;;1.05;;
44850;SDS011;30583;48.714;9.386;2024-02-23T11:17:20;6.78;;;1.10;;
44850;SDS011;30583;48.714;9.386;2024-02-23T11:19:48;3.65;;;1.00;;
44850;SDS011;30583;48.714;9.386;2024-02-23T11:22:15;7.00;;;1.60;;
44850;SDS011;30583;48.714;9.386;2024-02-23T11:24:52;3.22;;;0.90;;
44850;SDS011;30583;48.714;9.386;2024-02-23T11:27:18;7.10;;;1.35;;
44850;SDS011;30583;48.714;9.386;2024-02-23T11:29:45;3.53;;;1.17;;
44850;SDS011;30583;48.714;9.386;2024-02-23T11:32:12;4.20;;;1.08;;
44850;SDS011;30583;48.714;9.386;2024-02-23T11:34:39;4.13;;;1.10;;
44850;SDS011;30583;48.714;9.386;2024-02-23T11:37:09;5.25;;;0.90;;
44850;SDS011;30583;48.714;9.386;2024-02-23T11:39:37;3.72;;;1.40;;
44850;SDS011;30583;48.714;9.386;2024-02-23T11:42:06;3.47;;;1.10;;
44850;SDS011;30583;48.714;9.386;2024-02-23T11:44:32;5.38;;;1.88;;
44850;SDS011;30583;48.714;9.386;2024-02-23T11:46:58;5.22;;;1.83;;
44850;SDS011;30583;48.714;9.386;2024-02-23T11:49:27;6.15;;;1.80;;
44850;SDS011;30583;48.714;9.386;2024-02-23T11:51:54;6.53;;;1.70;;
44850;SDS011;30583;48.714;9.386;2024-02-23T11:54:20;4.35;;;1.58;;
44850;SDS011;30583;48.714;9.386;2024-02-23T11:56:46;6.47;;;1.70;;
44850;SDS011;30583;48.714;9.386;2024-02-23T11:59:14;5.13;;;1.10;;
44850;SDS011;30583;48.714;9.386;2024-02-23T12:01:49;4.82;;;1.10;;
44850;SDS011;30583;48.714;9.386;2024-02-23T12:04:15;3.25;;;1.00;;
44850;SDS011;30583;48.714;9.386;2024-02-23T12:06:41;4.57;;;0.85;;
44850;SDS011;30583;48.714;9.386;2024-02-23T12:09:07;5.20;;;1.02;;
44850;SDS011;30583;48.714;9.386;2024-02-23T12:11:33;3.25;;;0.95;;
44850;SDS011;30583;48.714;9.386;2024-02-23T12:14:00;4.88;;;1.10;;
44850;SDS011;30583;48.714;9.386;2024-02-23T12:16:32;4.93;;;1.35;;
44850;SDS011;30583;48.714;9.386;2024-02-23T12:19:00;8.10;;;1.50;;
44850;SDS011;30583;48.714;9.386;2024-02-23T12:21:26;5.47;;;1.00;;
44850;SDS011;30583;48.714;9.386;2024-02-23T12:23:52;3.22;;;0.93;;
44850;SDS011;30583;48.714;9.386;2024-02-23T12:26:18;3.33;;;1.10;;
44850;SDS011;30583;48.714;9.386;2024-02-23T12:28:44;4.95;;;0.90;;
44850;SDS011;30583;48.714;9.386;2024-02-23T12:31:11;3.78;;;1.27;;
44850;SDS011;30583;48.714;9.386;2024-02-23T12:33:37;7.10;;;1.33;;
44850;SDS011;30583;48.714;9.386;2024-02-23T12:36:07;7.90;;;3.00;;
44850;SDS011;30583;48.714;9.386;2024-02-23T12:38:33;5.47;;;1.75;;
44850;SDS011;30583;48.714;9.386;2024-02-23T12:41:00;5.53;;;1.60;;
44850;SDS011;30583;48.714;9.386;2024-02-23T12:43:28;3.47;;;1.10;;
44850;SDS011;30583;48.714;9.386;2024-02-23T12:45:54;3.83;;;1.25;;
44850;SDS011;30583;48.714;9.386;2024-02-23T12:48:21;5.63;;;1.70;;
44850;SDS011;30583;48.714;9.386;2024-02-23T12:50:47;3.75;;;1.00;;
44850;SDS011;30583;48.714;9.386;2024-02-23T12:56:09;6.88;;;1.10;;
44850;SDS011;30583;48.714;9.386;2024-02-23T12:58:36;5.53;;;1.20;;
44850;SDS011;30583;48.714;9.386;2024-02-23T13:01:03;4.35;;;0.98;;
44850;SDS011;30583;48.714;9.386;2024-02-23T13:03:29;3.15;;;0.80;;
44850;SDS011;30583;48.714;9.386;2024-02-23T13:05:55;4.68;;;1.10;;
44850;SDS011;30583;48.714;9.386;2024-02-23T13:08:21;5.88;;;1.08;;
44850;SDS011;30583;48.714;9.386;2024-02-23T13:10:48;4.88;;;1.15;;
44850;SDS011;30583;48.714;9.386;2024-02-23T13:13:14;6.00;;;1.13;;
44850;SDS011;30583;48.714;9.386;2024-02-23T13:15:41;6.35;;;1.42;;
44850;SDS011;30583;48.714;9.386;2024-02-23T13:18:06;7.07;;;1.27;;
44850;SDS011;30583;48.714;9.386;2024-02-23T13:20:32;7.70;;;1.40;;
44850;SDS011;30583;48.714;9.386;2024-02-23T13:22:58;9.27;;;2.88;;
44850;SDS011;30583;48.714;9.386;2024-02-23T13:25:23;7.88;;;2.05;;
44850;SDS011;30583;48.714;9.386;2024-02-23T13:27:49;6.93;;;2.17;;
44850;SDS011;30583;48.714;9.386;2024-02-23T13:30:15;7.93;;;1.65;;
44850;SDS011;30583;48.714;9.386;2024-02-23T13:32:40;7.72;;;2.05;;
44850;SDS011;30583;48.714;9.386;2024-02-23T13:35:06;5.13;;;1.92;;
44850;SDS011;30583;48.714;9.386;2024-02-23T13:37:33;6.60;;;2.03;;
44850;SDS011;30583;48.714;9.386;2024-02-23T13:39:59;5.30;;;1.13;;
44850;SDS011;30583;48.714;9.386;2024-02-23T13:42:25;7.78;;;1.10;;
44850;SDS011;30583;48.714;9.386;2024-02-23T13:44:51;6.93;;;2.15;;
44850;SDS011;30583;48.714;9.386;2024-02-23T13:47:16;4.20;;;1.40;;
44850;SDS011;30583;48.714;9.386;2024-02-23T13:49:42;5.93;;;1.35;;
44850;SDS011;30583;48.714;9.386;2024-02-23T13:52:08;6.72;;;1.30;;
44850;SDS011;30583;48.714;9.386;2024-02-23T13:54:33;7.35;;;1.05;;
44850;SDS011;30583;48.714;9.386;2024-02-23T13:56:59;4.80;;;1.08;;
44850;SDS011;30583;48.714;9.386;2024-02-23T13:59:25;6.18;;;1.05;;
44850;SDS011;30583;48.714;9.386;2024-02-23T14:01:50;5.15;;;1.75;;
44850;SDS011;30583;48.714;9.386;2024-02-23T14:04:16;6.05;;;1.65;;
44850;SDS011;30583;48.714;9.386;2024-02-23T14:06:42;6.07;;;1.45;;
44850;SDS011;30583;48.714;9.386;2024-02-23T14:09:08;6.25;;;1.27;;
44850;SDS011;30583;48.714;9.386;2024-02-23T14:11:34;6.55;;;1.13;;
44850;SDS011;30583;48.714;9.386;2024-02-23T14:14:00;5.75;;;1.50;;
44850;SDS011;30583;48.714;9.386;2024-02-23T14:16:27;7.60;;;1.40;;
44850;SDS011;30583;48.714;9.386;2024-02-23T14:18:53;6.65;;;1.75;;
44850;SDS011;30583;48.714;9.386;2024-02-23T14:21:20;8.23;;;2.15;;
44850;SDS011;30583;48.714;9.386;2024-02-23T14:23:47;7.57;;;2.42;;
44850;SDS011;30583;48.714;9.386;2024-02-23T14:26:13;11.07;;;4.03;;
44850;SDS011;30583;48.714;9.386;2024-02-23T14:28:38;8.50;;;2.08;;
44850;SDS011;30583;48.714;9.386;2024-02-23T14:31:04;4.10;;;1.40;;
44850;SDS011;30583;48.714;9.386;2024-02-23T14:33:31;9.10;;;2.30;;
44850;SDS011;30583;48.714;9.386;2024-02-23T14:35:57;7.15;;;2.15;;
44850;SDS011;30583;48.714;9.386;2024-02-23T14:38:23;7.22;;;1.30;;
44850;SDS011;30583;48.714;9.386;2024-02-23T14:40:48;7.85;;;1.40;;
44850;SDS011;30583;48.714;9.386;2024-02-23T14:43:14;5.50;;;1.48;;